Startpagina
METAR-TAF:

METAR-TAF

Vliegvelden :

Internationale luchthaven Chongqing Jiangbei

Tsjoengking, China

breedte: 29-31N, lengte: 106-29E, hoogte: 351 m

Actueel weer

Dit bericht is 56 minuten geleden gemaakt, om 07:00 UTC
Wind 6 kt uit het oostnoordoosten, variërend tussen het noorden en het zuidoosten
Temperatuur 13°C
Vochtigheid 51%
Druk 1017 hPa
Zicht 10 km of meer
geen wolken onder 1500 m en geen cumulonimbus

METAR: ZUCK 160700Z 06003MPS 360V130 CAVOK 13/03 Q1017 NOSIG

Tijdstip: 15:56 (07:56 UTC)

Verwachting

Dit bericht is 4 uur en het 54 minuten geleden gemaakt, om 03:02 UTC
Verwachting geldig van 16 om 06 UTC tot 17 om 06 UTC
Wind 6 kt uit het oostzuidoosten
Zicht: 5000 m
Verspreide wolken op 2000 ft
Geheel bewolkt op 5000 ft
nevel

TAF: ZUCK 160302Z 1606/1706 12003MPS 5000 BR SCT020 OVC050 TX12/1608Z TN07/1622Z

Waarnemingen en weersverwachtingen van meer dan 4000 vliegvelden (METAR en TAF).

De beschikbare stations zijn de gele en rode punten op de kaart.

Ga met uw muis naar het station om de naam te zien.

Klik dan om waarnemingen en weersverwachtingen te zien.

kaart wijzigen: klik op de groene knoppen met een zwart kruis om in te zoomen, op de groene knop met een streepje om uit te zoomen of op de groene pijlen voor aangrenzende kaarten.


METAR-TAF: